createdAt,value
2022-08-26T00:00:20.243Z,99594.00
2022-08-26T00:03:03.786Z,99594.02
2022-08-26T00:05:32.414Z,99591.43
2022-08-26T00:08:00.843Z,99593.08
2022-08-26T00:10:29.778Z,99593.13
2022-08-26T00:12:59.357Z,99596.92
2022-08-26T00:15:56.880Z,99593.70
2022-08-26T00:18:25.966Z,99596.89
2022-08-26T00:20:55.141Z,99593.77
2022-08-26T00:23:24.381Z,99593.95
2022-08-26T00:25:54.976Z,99591.14
2022-08-26T00:28:26.646Z,99595.99
2022-08-26T00:30:57.691Z,99596.08
2022-08-26T00:33:26.037Z,99597.79
2022-08-26T00:35:54.465Z,99593.08
2022-08-26T00:38:24.191Z,99591.42
2022-08-26T00:40:55.828Z,99587.54
2022-08-26T00:43:26.786Z,99590.19
2022-08-26T00:46:06.602Z,99588.36
2022-08-26T00:48:37.779Z,99586.42
2022-08-26T00:51:17.153Z,99587.57
2022-08-26T00:53:53.791Z,99583.02
2022-08-26T00:56:30.133Z,99582.59
2022-08-26T00:59:02.261Z,99581.48
2022-08-26T01:01:33.276Z,99580.70
2022-08-26T01:04:02.285Z,99578.06
2022-08-26T01:06:31.628Z,99574.30
2022-08-26T01:09:00.181Z,99576.02
2022-08-26T01:11:28.629Z,99575.86
2022-08-26T01:13:59.663Z,99572.65
2022-08-26T01:16:30.828Z,99581.95
2022-08-26T01:19:06.635Z,99581.74
2022-08-26T01:21:44.193Z,99582.20
2022-08-26T01:24:14.024Z,99576.60
2022-08-26T01:26:44.896Z,99574.63
2022-08-26T01:29:17.952Z,99574.63
2022-08-26T01:31:52.465Z,99575.41
2022-08-26T01:34:26.125Z,99574.79
2022-08-26T01:37:15.497Z,99575.08
2022-08-26T01:39:49.122Z,99573.63
2022-08-26T01:42:20.369Z,99574.14
2022-08-26T01:44:57.438Z,99574.61
2022-08-26T01:47:46.936Z,99579.70
2022-08-26T01:50:27.774Z,99580.20
2022-08-26T01:53:00.399Z,99582.29
2022-08-26T01:55:33.215Z,99587.16
2022-08-26T01:58:08.308Z,99583.52
2022-08-26T02:00:38.226Z,99581.73
2022-08-26T02:03:17.445Z,99575.34
2022-08-26T02:05:51.308Z,99572.38
2022-08-26T02:08:37.769Z,99569.66
2022-08-26T02:11:07.718Z,99569.21
2022-08-26T02:13:46.613Z,99569.31
2022-08-26T02:16:22.385Z,99575.20
2022-08-26T02:18:55.824Z,99579.55
2022-08-26T02:21:25.042Z,99581.91
2022-08-26T02:23:55.998Z,99583.08
2022-08-26T02:26:27.034Z,99580.48
2022-08-26T02:29:31.812Z,99580.52
2022-08-26T02:32:00.993Z,99582.29
2022-08-26T02:34:32.169Z,99583.88
2022-08-26T02:37:06.522Z,99584.98
2022-08-26T02:39:37.111Z,99576.36
2022-08-26T02:42:06.387Z,99582.38
2022-08-26T02:44:35.315Z,99578.93
2022-08-26T02:47:04.619Z,99583.67
2022-08-26T02:49:33.749Z,99582.69
2022-08-26T02:52:02.186Z,99578.75
2022-08-26T02:54:31.724Z,99574.38
2022-08-26T02:57:01.942Z,99572.75
2022-08-26T02:59:32.123Z,99571.35
2022-08-26T03:02:00.664Z,99571.04
2022-08-26T03:04:30.686Z,99572.08
2022-08-26T03:07:02.772Z,99577.40
2022-08-26T03:09:32.189Z,99580.37
2022-08-26T03:12:01.461Z,99583.90
2022-08-26T03:14:30.565Z,99591.84
2022-08-26T03:16:59.192Z,99589.85
2022-08-26T03:19:27.690Z,99590.84
2022-08-26T03:21:57.891Z,99592.13
2022-08-26T03:24:27.012Z,99592.27
2022-08-26T03:26:55.420Z,99587.73
2022-08-26T03:29:43.335Z,99585.02
2022-08-26T03:32:12.544Z,99583.83
2022-08-26T03:34:40.970Z,99579.23
2022-08-26T03:37:10.175Z,99577.02
2022-08-26T03:39:38.594Z,99576.91
2022-08-26T03:42:09.387Z,99569.21
2022-08-26T03:44:42.230Z,99579.17
2022-08-26T03:47:11.234Z,99578.48
2022-08-26T03:49:39.813Z,99574.48
2022-08-26T03:52:08.199Z,99572.24
2022-08-26T03:54:36.879Z,99576.05
2022-08-26T03:57:05.386Z,99574.92
2022-08-26T03:59:34.234Z,99571.29
2022-08-26T04:02:02.756Z,99575.29
2022-08-26T04:04:31.400Z,99576.05
2022-08-26T04:07:00.568Z,99576.33
2022-08-26T04:09:29.153Z,99576.20
2022-08-26T04:11:58.783Z,99569.84
2022-08-26T04:14:28.382Z,99572.83
2022-08-26T04:16:57.257Z,99571.73
2022-08-26T04:19:27.155Z,99568.21
2022-08-26T04:21:55.461Z,99570.95
2022-08-26T04:24:26.178Z,99569.09
2022-08-26T04:26:56.876Z,99569.85
2022-08-26T04:29:26.992Z,99568.98
2022-08-26T04:31:56.020Z,99568.71
2022-08-26T04:34:28.342Z,99568.39
2022-08-26T04:36:58.504Z,99570.64
2022-08-26T04:39:27.689Z,99572.27
2022-08-26T04:41:57.659Z,99572.19
2022-08-26T04:44:29.219Z,99574.16
2022-08-26T04:46:58.823Z,99573.54
2022-08-26T04:49:27.790Z,99570.65
2022-08-26T04:51:56.258Z,99574.01
2022-08-26T04:54:26.295Z,99575.63
2022-08-26T04:56:55.333Z,99576.45
2022-08-26T04:59:25.339Z,99578.80
2022-08-26T05:04:49.291Z,99577.96
2022-08-26T05:07:20.353Z,99575.21
2022-08-26T05:09:49.752Z,99573.48
2022-08-26T05:12:18.648Z,99573.34
2022-08-26T05:14:47.467Z,99578.88
2022-08-26T05:17:15.966Z,99579.05
2022-08-26T05:19:44.972Z,99581.86
2022-08-26T05:22:14.082Z,99588.02
2022-08-26T05:24:43.879Z,99590.79
2022-08-26T05:27:13.625Z,99586.16
2022-08-26T05:29:42.633Z,99588.66
2022-08-26T05:32:12.750Z,99588.59
2022-08-26T05:34:41.246Z,99589.05
2022-08-26T05:37:11.506Z,99586.73
2022-08-26T05:39:43.564Z,99581.35
2022-08-26T05:42:20.186Z,99575.66
2022-08-26T05:44:53.699Z,99575.45
2022-08-26T05:47:26.425Z,99575.15
2022-08-26T05:49:56.316Z,99573.77
2022-08-26T05:52:26.092Z,99572.86
2022-08-26T05:54:55.312Z,99571.32
2022-08-26T05:57:23.910Z,99575.16
2022-08-26T05:59:53.107Z,99570.54
2022-08-26T06:02:22.127Z,99571.64
2022-08-26T06:04:50.433Z,99571.96
2022-08-26T06:07:40.618Z,99571.67
2022-08-26T06:10:32.516Z,99569.75
2022-08-26T06:13:09.294Z,99572.56
2022-08-26T06:15:46.149Z,99574.96
2022-08-26T06:18:17.501Z,99568.89
2022-08-26T06:20:57.120Z,99574.90
2022-08-26T06:23:48.005Z,99574.81
2022-08-26T06:26:16.945Z,99573.86
2022-08-26T06:28:45.851Z,99574.27
2022-08-26T06:31:15.823Z,99575.89
2022-08-26T06:33:45.559Z,99583.33
2022-08-26T06:36:25.521Z,99583.71
2022-08-26T06:38:56.089Z,99587.38
2022-08-26T06:41:25.945Z,99591.38
2022-08-26T06:43:54.374Z,99585.82
2022-08-26T06:46:23.016Z,99584.13
2022-08-26T06:48:55.708Z,99582.86
2022-08-26T06:51:36.039Z,99582.45
2022-08-26T06:54:06.218Z,99578.98
2022-08-26T06:56:41.824Z,99579.48
2022-08-26T06:59:12.112Z,99577.34
2022-08-26T07:01:46.381Z,99569.08
2022-08-26T07:04:22.163Z,99562.72
2022-08-26T07:06:53.711Z,99557.13
2022-08-26T07:09:25.545Z,99556.27
2022-08-26T07:11:58.556Z,99556.61
2022-08-26T07:14:27.062Z,99554.02
2022-08-26T07:16:55.650Z,99552.55
2022-08-26T07:19:30.464Z,99548.39
2022-08-26T07:22:04.720Z,99542.66
2022-08-26T07:24:36.829Z,99539.59
2022-08-26T07:27:07.483Z,99536.30
2022-08-26T07:29:39.517Z,99531.11
2022-08-26T07:32:10.056Z,99535.20
2022-08-26T07:34:39.164Z,99533.70
2022-08-26T07:37:08.696Z,99527.84
2022-08-26T07:39:37.880Z,99529.12
2022-08-26T07:42:13.264Z,99531.63
2022-08-26T07:44:43.581Z,99532.38
2022-08-26T07:47:25.827Z,99531.60
2022-08-26T07:49:58.078Z,99528.65
2022-08-26T07:52:28.968Z,99529.85
2022-08-26T07:54:59.402Z,99530.95
2022-08-26T07:57:28.855Z,99529.98
2022-08-26T07:59:57.569Z,99529.55
2022-08-26T08:02:27.408Z,99526.95
2022-08-26T08:04:57.908Z,99523.98
2022-08-26T08:07:44.992Z,99520.33
2022-08-26T08:10:18.708Z,99512.80
2022-08-26T08:12:50.489Z,99504.86
2022-08-26T08:15:21.927Z,99501.08
2022-08-26T08:17:51.622Z,99497.27
2022-08-26T08:20:22.252Z,99498.13
2022-08-26T08:22:52.919Z,99502.05
2022-08-26T08:25:23.500Z,99507.29
2022-08-26T08:27:51.856Z,99502.41
2022-08-26T08:30:23.024Z,99498.03
2022-08-26T08:32:52.587Z,99500.69
2022-08-26T08:35:22.895Z,99497.15
2022-08-26T08:37:54.527Z,99499.76
2022-08-26T08:40:26.458Z,99500.14
2022-08-26T08:43:11.784Z,99496.02
2022-08-26T08:45:49.746Z,99494.63
2022-08-26T08:48:35.080Z,99490.48
2022-08-26T08:51:30.140Z,99485.02
2022-08-26T08:54:00.360Z,99484.90
2022-08-26T08:56:45.021Z,99481.15
2022-08-26T08:59:18.177Z,99485.11
2022-08-26T09:01:55.752Z,99484.14
2022-08-26T09:05:05.718Z,99487.05
2022-08-26T09:07:49.021Z,99489.00
2022-08-26T09:10:37.532Z,99487.09
2022-08-26T09:13:13.720Z,99486.39
2022-08-26T09:16:14.158Z,99484.45
2022-08-26T09:19:11.318Z,99487.35
2022-08-26T09:21:39.736Z,99483.78
2022-08-26T09:24:08.413Z,99477.19
2022-08-26T09:26:39.718Z,99474.08
2022-08-26T09:29:14.654Z,99471.02
2022-08-26T09:31:43.043Z,99464.86
2022-08-26T09:34:19.591Z,99459.59
2022-08-26T09:36:51.564Z,99459.86
2022-08-26T09:39:31.256Z,99455.70
2022-08-26T09:42:07.677Z,99454.13
2022-08-26T09:44:52.922Z,99449.21
2022-08-26T09:47:52.836Z,99444.80
2022-08-26T09:50:55.644Z,99445.52
2022-08-26T09:53:30.508Z,99451.56
2022-08-26T09:56:27.581Z,99441.65
2022-08-26T09:58:57.776Z,99436.64
2022-08-26T10:01:38.442Z,99436.16
2022-08-26T10:04:15.041Z,99432.10
2022-08-26T10:07:05.287Z,99429.67
2022-08-26T10:09:39.133Z,99434.27
2022-08-26T10:12:13.472Z,99430.90
2022-08-26T10:15:12.080Z,99431.54
2022-08-26T10:17:53.573Z,99422.65
2022-08-26T10:20:28.929Z,99421.23
2022-08-26T10:23:03.400Z,99418.39
2022-08-26T10:25:47.396Z,99413.40
2022-08-26T10:28:35.581Z,99410.13
2022-08-26T10:31:29.660Z,99407.26
2022-08-26T10:34:07.296Z,99404.74
2022-08-26T10:39:43.001Z,99399.35
2022-08-26T10:42:35.558Z,99403.71
2022-08-26T10:45:08.037Z,99402.89
2022-08-26T10:47:52.364Z,99400.77
2022-08-26T10:50:25.147Z,99399.38
2022-08-26T10:53:04.084Z,99400.13
2022-08-26T10:55:57.413Z,99396.52
2022-08-26T10:58:28.580Z,99400.13
2022-08-26T11:01:40.752Z,99397.36
2022-08-26T11:04:16.782Z,99395.97
2022-08-26T11:06:46.258Z,99393.67
2022-08-26T11:09:45.997Z,99387.77
2022-08-26T11:12:36.342Z,99393.22
2022-08-26T11:15:09.066Z,99396.48
2022-08-26T11:17:47.039Z,99391.15
2022-08-26T11:20:33.481Z,99390.20
2022-08-26T11:23:14.570Z,99387.24
2022-08-26T11:26:01.100Z,99388.48
2022-08-26T11:28:45.651Z,99386.20
2022-08-26T11:31:25.438Z,99378.05
2022-08-26T11:34:07.261Z,99383.89
2022-08-26T11:36:47.951Z,99384.55
2022-08-26T11:39:28.991Z,99388.52
2022-08-26T11:42:05.395Z,99387.13
2022-08-26T11:44:49.580Z,99385.11
2022-08-26T11:47:29.456Z,99377.70
2022-08-26T11:50:17.643Z,99377.84
2022-08-26T11:53:07.658Z,99379.20
2022-08-26T11:55:42.873Z,99379.66
2022-08-26T11:58:15.048Z,99373.13
2022-08-26T12:00:46.315Z,99371.45
2022-08-26T12:03:43.988Z,99370.03
2022-08-26T12:06:16.864Z,99368.77
2022-08-26T12:08:47.656Z,99367.71
2022-08-26T12:11:32.032Z,99363.44
2022-08-26T12:14:07.255Z,99361.02
2022-08-26T12:16:39.669Z,99360.41
2022-08-26T12:19:32.911Z,99356.37
2022-08-26T12:22:27.805Z,99356.12
2022-08-26T12:24:59.539Z,99351.11
2022-08-26T12:27:42.863Z,99352.18
2022-08-26T12:30:18.025Z,99353.35
2022-08-26T12:33:03.374Z,99351.20
2022-08-26T12:35:56.561Z,99345.35
2022-08-26T12:38:27.614Z,99345.52
2022-08-26T12:40:57.179Z,99344.27
2022-08-26T12:43:38.572Z,99341.19
2022-08-26T12:46:10.568Z,99336.61
2022-08-26T12:48:42.905Z,99337.84
2022-08-26T12:51:24.939Z,99337.28
2022-08-26T12:53:54.382Z,99333.71
2022-08-26T12:56:40.732Z,99331.88
2022-08-26T12:59:29.264Z,99332.10
2022-08-26T13:01:57.697Z,99328.63
2022-08-26T13:04:40.485Z,99328.35
2022-08-26T13:07:18.289Z,99321.47
2022-08-26T13:09:47.326Z,99318.91
2022-08-26T13:12:37.469Z,99317.92
2022-08-26T13:15:07.203Z,99314.02
2022-08-26T13:17:36.150Z,99317.94
2022-08-26T13:20:05.040Z,99318.70
2022-08-26T13:22:34.456Z,99320.11
2022-08-26T13:25:03.047Z,99323.31
2022-08-26T13:27:31.434Z,99326.30
2022-08-26T13:30:00.417Z,99327.40
2022-08-26T13:32:29.297Z,99329.36
2022-08-26T13:34:57.985Z,99330.70
2022-08-26T13:37:35.043Z,99334.80
2022-08-26T13:40:07.052Z,99333.30
2022-08-26T13:42:35.744Z,99331.73
2022-08-26T13:45:06.355Z,99326.80
2022-08-26T13:47:35.099Z,99335.73
2022-08-26T13:50:04.706Z,99334.10
2022-08-26T13:52:33.048Z,99333.25
2022-08-26T13:55:01.681Z,99335.81
2022-08-26T13:57:30.629Z,99334.65
2022-08-26T14:00:01.787Z,99335.41
2022-08-26T14:02:37.983Z,99335.33
2022-08-26T14:05:07.175Z,99334.73
2022-08-26T14:07:35.509Z,99334.29
2022-08-26T14:10:04.116Z,99333.04
2022-08-26T14:12:32.473Z,99332.05
2022-08-26T14:15:00.780Z,99329.42
2022-08-26T14:17:30.765Z,99329.29
2022-08-26T14:19:59.314Z,99328.23
2022-08-26T14:22:28.084Z,99327.25
2022-08-26T14:24:56.780Z,99328.02
2022-08-26T14:27:25.579Z,99329.20
2022-08-26T14:29:54.468Z,99324.31
2022-08-26T14:32:27.313Z,99323.95
2022-08-26T14:34:56.220Z,99323.21
2022-08-26T14:37:24.848Z,99322.67
2022-08-26T14:40:31.360Z,99319.85
2022-08-26T14:43:02.639Z,99320.46
2022-08-26T14:45:34.769Z,99304.34
2022-08-26T14:48:05.688Z,99322.39
2022-08-26T14:50:33.887Z,99321.63
2022-08-26T14:53:20.408Z,99321.81
2022-08-26T14:55:48.865Z,99323.14
2022-08-26T14:58:17.065Z,99321.77
2022-08-26T15:00:45.222Z,99323.98
2022-08-26T15:05:48.448Z,99330.34
2022-08-26T15:08:16.926Z,99329.30
2022-08-26T15:10:45.000Z,99327.89
2022-08-26T15:13:13.107Z,99325.20
2022-08-26T15:15:41.263Z,99324.95
2022-08-26T15:18:10.106Z,99326.64
2022-08-26T15:20:38.703Z,99325.54
2022-08-26T15:23:07.469Z,99326.55
2022-08-26T15:25:35.767Z,99328.00
2022-08-26T15:28:04.175Z,99326.80
2022-08-26T15:30:33.648Z,99324.19
2022-08-26T15:33:01.950Z,99319.91
2022-08-26T15:35:30.111Z,99321.92
2022-08-26T15:38:04.216Z,99327.16
2022-08-26T15:40:32.353Z,99325.23
2022-08-26T15:43:17.709Z,99323.21
2022-08-26T15:45:46.885Z,99327.02
2022-08-26T15:48:16.196Z,99327.07
2022-08-26T15:50:56.518Z,99328.11
2022-08-26T15:53:24.923Z,99331.23
2022-08-26T15:55:58.980Z,99333.77
2022-08-26T15:58:28.586Z,99331.17
2022-08-26T16:00:56.974Z,99334.45
2022-08-26T16:03:25.143Z,99334.75
2022-08-26T16:05:53.543Z,99340.95
2022-08-26T16:08:22.534Z,99342.19
2022-08-26T16:10:51.497Z,99340.13
2022-08-26T16:13:20.826Z,99341.56
2022-08-26T16:15:52.689Z,99340.13
2022-08-26T16:18:20.877Z,99343.10
2022-08-26T16:21:12.391Z,99344.55
2022-08-26T16:23:45.179Z,99346.15
2022-08-26T16:26:20.773Z,99343.89
2022-08-26T16:28:49.239Z,99340.34
2022-08-26T16:31:18.116Z,99347.33
2022-08-26T16:33:46.398Z,99344.59
2022-08-26T16:36:14.963Z,99343.83
2022-08-26T16:38:50.247Z,99342.25
2022-08-26T16:41:19.365Z,99340.41
2022-08-26T16:43:47.863Z,99339.33
2022-08-26T16:46:16.360Z,99338.17
2022-08-26T16:48:45.709Z,99336.54
2022-08-26T16:51:17.021Z,99337.69
2022-08-26T16:53:45.964Z,99339.17
2022-08-26T16:56:16.521Z,99338.73
2022-08-26T16:58:44.858Z,99339.00
2022-08-26T17:01:13.092Z,99334.75
2022-08-26T17:03:41.743Z,99341.84
2022-08-26T17:06:10.358Z,99344.38
2022-08-26T17:08:40.137Z,99343.20
2022-08-26T17:11:09.114Z,99343.27
2022-08-26T17:13:39.333Z,99342.35
2022-08-26T17:16:10.235Z,99344.77
2022-08-26T17:18:39.025Z,99346.52
2022-08-26T17:21:10.485Z,99349.95
2022-08-26T17:23:41.092Z,99353.95
2022-08-26T17:26:10.889Z,99356.60
2022-08-26T17:28:39.736Z,99360.93
2022-08-26T17:31:09.555Z,99362.11
2022-08-26T17:33:38.210Z,99362.64
2022-08-26T17:36:08.077Z,99366.41
2022-08-26T17:38:37.853Z,99366.99
2022-08-26T17:41:14.934Z,99367.73
2022-08-26T17:43:43.929Z,99369.99
2022-08-26T17:46:12.920Z,99375.65
2022-08-26T17:48:41.426Z,99376.98
2022-08-26T17:51:15.520Z,99374.65
2022-08-26T17:53:43.948Z,99379.64
2022-08-26T17:56:14.846Z,99383.27
2022-08-26T17:58:50.940Z,99380.07
2022-08-26T18:01:21.793Z,99373.23
2022-08-26T18:03:50.379Z,99382.46
2022-08-26T18:06:20.842Z,99377.50
2022-08-26T18:08:49.054Z,99382.48
2022-08-26T18:11:20.511Z,99380.46
2022-08-26T18:13:55.609Z,99381.08
2022-08-26T18:16:42.994Z,99384.73
2022-08-26T18:19:11.422Z,99382.42
2022-08-26T18:21:39.570Z,99382.29
2022-08-26T18:24:12.153Z,99382.84
2022-08-26T18:26:48.374Z,99379.58
2022-08-26T18:29:18.592Z,99377.20
2022-08-26T18:31:48.658Z,99375.09
2022-08-26T18:34:17.226Z,99367.96
2022-08-26T18:36:46.162Z,99377.46
2022-08-26T18:39:15.730Z,99376.61
2022-08-26T18:41:47.608Z,99370.28
2022-08-26T18:44:18.883Z,99374.00
2022-08-26T18:46:47.779Z,99374.11
2022-08-26T18:49:18.124Z,99371.77
2022-08-26T18:51:47.940Z,99373.14
2022-08-26T18:54:16.362Z,99372.64
2022-08-26T18:56:45.342Z,99369.61
2022-08-26T18:59:14.133Z,99368.66
2022-08-26T19:01:43.414Z,99369.23
2022-08-26T19:04:15.292Z,99372.11
2022-08-26T19:06:47.801Z,99369.43
2022-08-26T19:09:17.862Z,99373.74
2022-08-26T19:11:47.013Z,99377.73
2022-08-26T19:14:18.673Z,99381.83
2022-08-26T19:16:48.764Z,99378.20
2022-08-26T19:19:17.438Z,99382.89
2022-08-26T19:21:47.104Z,99385.23
2022-08-26T19:24:17.696Z,99385.27
2022-08-26T19:26:57.702Z,99382.01
2022-08-26T19:29:29.708Z,99381.95
2022-08-26T19:31:58.148Z,99384.11
2022-08-26T19:34:26.730Z,99382.17
2022-08-26T19:36:57.009Z,99378.17
2022-08-26T19:39:26.535Z,99374.58
2022-08-26T19:41:56.112Z,99370.13
2022-08-26T19:44:42.795Z,99369.20
2022-08-26T19:47:12.004Z,99369.89
2022-08-26T19:49:40.293Z,99369.78
2022-08-26T19:52:09.051Z,99368.46
2022-08-26T19:54:38.446Z,99369.23
2022-08-26T19:57:06.782Z,99370.91
2022-08-26T19:59:36.852Z,99370.30
2022-08-26T20:02:10.048Z,99371.70
2022-08-26T20:04:40.075Z,99371.80
2022-08-26T20:07:09.325Z,99371.63
2022-08-26T20:09:37.870Z,99373.68
2022-08-26T20:12:07.089Z,99377.15
2022-08-26T20:14:36.422Z,99374.44
2022-08-26T20:17:05.866Z,99377.10
2022-08-26T20:19:53.086Z,99372.77
2022-08-26T20:22:21.862Z,99372.36
2022-08-26T20:24:50.042Z,99373.60
2022-08-26T20:27:18.232Z,99370.11
2022-08-26T20:29:46.376Z,99374.88
2022-08-26T20:32:14.845Z,99376.16
2022-08-26T20:34:43.073Z,99374.87
2022-08-26T20:37:12.395Z,99375.71
2022-08-26T20:39:41.488Z,99375.08
2022-08-26T20:42:20.291Z,99375.48
2022-08-26T20:44:54.430Z,99375.95
2022-08-26T20:47:23.432Z,99375.70
2022-08-26T20:49:52.578Z,99375.81
2022-08-26T20:52:20.822Z,99377.27
2022-08-26T20:54:49.052Z,99378.70
2022-08-26T20:57:17.247Z,99377.50
2022-08-26T20:59:45.395Z,99375.27
2022-08-26T21:02:13.651Z,99376.45
2022-08-26T21:04:41.815Z,99379.89
2022-08-26T21:07:09.956Z,99383.79
2022-08-26T21:09:38.268Z,99384.30
2022-08-26T21:12:06.644Z,99389.17
2022-08-26T21:14:34.771Z,99388.96
2022-08-26T21:17:03.238Z,99389.33
2022-08-26T21:19:31.445Z,99386.75
2022-08-26T21:21:59.700Z,99389.91
2022-08-26T21:24:27.901Z,99392.99
2022-08-26T21:26:56.058Z,99392.22
2022-08-26T21:29:24.166Z,99395.36
2022-08-26T21:31:52.433Z,99395.34
2022-08-26T21:34:20.873Z,99394.98
2022-08-26T21:36:49.250Z,99395.54
2022-08-26T21:39:18.081Z,99393.45
2022-08-26T21:41:47.359Z,99390.95
2022-08-26T21:44:18.205Z,99388.38
2022-08-26T21:46:47.183Z,99390.37
2022-08-26T21:49:16.479Z,99391.95
2022-08-26T21:51:48.064Z,99388.72
2022-08-26T21:54:18.199Z,99389.85
2022-08-26T21:56:47.376Z,99382.73
2022-08-26T21:59:18.029Z,99387.34
2022-08-26T22:01:46.910Z,99386.05
2022-08-26T22:04:16.722Z,99386.03
2022-08-26T22:06:48.858Z,99382.84
2022-08-26T22:09:20.734Z,99388.70
2022-08-26T22:11:49.992Z,99389.90
2022-08-26T22:14:22.262Z,99388.31
2022-08-26T22:16:51.067Z,99386.39
2022-08-26T22:19:21.748Z,99391.30
2022-08-26T22:21:54.031Z,99389.31
2022-08-26T22:24:24.838Z,99389.20
2022-08-26T22:26:54.375Z,99391.70
2022-08-26T22:29:22.705Z,99390.63
2022-08-26T22:31:51.025Z,99393.04
2022-08-26T22:34:21.218Z,99395.00
2022-08-26T22:36:50.064Z,99394.06
2022-08-26T22:39:22.084Z,99391.17
2022-08-26T22:41:51.375Z,99397.44
2022-08-26T22:44:21.627Z,99391.09
2022-08-26T22:46:54.181Z,99388.63
2022-08-26T22:49:23.230Z,99386.24
2022-08-26T22:51:51.419Z,99387.69
2022-08-26T22:54:19.575Z,99387.71
2022-08-26T22:56:47.893Z,99386.96
2022-08-26T22:59:17.006Z,99384.45
2022-08-26T23:01:47.007Z,99385.61
2022-08-26T23:04:15.289Z,99383.77
2022-08-26T23:06:47.344Z,99380.40
2022-08-26T23:09:18.707Z,99381.02
2022-08-26T23:11:48.643Z,99385.16
2022-08-26T23:14:19.165Z,99388.98
2022-08-26T23:16:48.098Z,99389.59
2022-08-26T23:19:19.509Z,99390.61
2022-08-26T23:21:49.685Z,99392.50
2022-08-26T23:24:18.462Z,99390.48
2022-08-26T23:26:47.163Z,99391.06
2022-08-26T23:29:16.112Z,99391.33
2022-08-26T23:31:44.976Z,99391.15
2022-08-26T23:34:33.449Z,99390.95
2022-08-26T23:37:02.347Z,99393.80
2022-08-26T23:39:33.373Z,99394.12
2022-08-26T23:42:01.836Z,99394.13
2022-08-26T23:44:30.878Z,99390.27
2022-08-26T23:46:59.756Z,99392.17
2022-08-26T23:49:29.074Z,99388.39
2022-08-26T23:52:16.366Z,99388.03
2022-08-26T23:54:44.737Z,99381.29
2022-08-26T23:57:12.841Z,99381.06
2022-08-26T23:59:41.359Z,99378.97
